Time;durP1;ratioP1;P1;durP2;ratioP2;P2;SDS_P1;SDS_P2;PMS_P1;PMS_P2;Temp;Humidity;BMP_temperature;BMP_pressure;BME280_temperature;BME280_humidity;BME280_pressure;Samples;Min_cycle;Max_cycle;Signal;HPM_P1;HPM_P2
2022/07/02 00:01:25;;;;;;;11.15;7.93;;;14.80;99.90;;;-141.84;92.00;18698.22;5054160;28;20770;-59
2022/07/02 00:03:58;;;;;;;7.90;7.18;;;14.80;99.90;;;-141.84;91.74;18704.31;5070316;28;20287;-59
2022/07/02 00:06:31;;;;;;;8.95;7.68;;;14.90;99.90;;;-141.84;92.10;18688.06;5069413;28;20311;-60
2022/07/02 00:09:02;;;;;;;7.38;6.57;;;14.90;99.90;;;-141.84;90.67;18718.56;5069540;28;20239;-59
2022/07/02 00:11:34;;;;;;;7.68;6.82;;;14.90;99.90;;;-141.84;91.55;18686.03;5069505;28;20256;-57
2022/07/02 00:14:03;;;;;;;9.07;7.18;;;14.90;99.90;;;-141.84;90.80;18679.94;5069665;28;20224;-60
2022/07/02 00:16:31;;;;;;;8.35;7.53;;;15.00;99.90;;;-141.84;89.89;18716.53;5069194;28;20295;-60
2022/07/02 00:19:00;;;;;;;7.85;7.15;;;15.00;99.90;;;-141.84;89.11;18755.13;5070079;28;20209;-59
2022/07/02 00:21:29;;;;;;;8.45;7.10;;;15.10;99.90;;;-141.84;89.54;18749.03;5069166;28;20307;-59
2022/07/02 00:23:57;;;;;;;7.15;6.45;;;15.20;99.90;;;-141.84;90.44;18688.06;5069209;28;20311;-59
2022/07/02 00:26:32;;;;;;;7.72;6.70;;;15.20;99.90;;;-141.84;90.55;18677.91;5069270;28;20367;-59
2022/07/02 00:29:12;;;;;;;7.80;6.97;;;15.20;99.90;;;-141.84;89.56;18704.31;5069545;28;20314;-59
2022/07/02 00:31:41;;;;;;;8.15;6.40;;;15.30;99.90;;;-141.84;89.57;18732.78;5068988;28;20239;-59
2022/07/02 00:34:11;;;;;;;9.48;6.95;;;15.20;99.90;;;-141.84;87.44;18765.28;5070032;28;20299;-59
2022/07/02 00:36:39;;;;;;;8.80;6.68;;;15.40;99.90;;;-141.84;87.99;18749.03;5049716;28;20223;-59
2022/07/02 00:39:07;;;;;;;7.18;6.50;;;15.40;99.90;;;-141.84;87.52;18807.94;5054250;28;20228;-58
2022/07/02 00:41:38;;;;;;;6.15;5.57;;;15.40;99.90;;;-141.84;88.20;18753.09;5068984;28;20271;-59
2022/07/02 00:44:07;;;;;;;7.90;6.60;;;15.50;99.90;;;-141.84;87.80;18814.03;5069455;28;20468;-60
2022/07/02 00:46:37;;;;;;;7.68;6.55;;;15.50;99.90;;;-141.84;88.47;18726.69;5059106;28;20226;-59
2022/07/02 00:49:05;;;;;;;9.13;7.00;;;15.40;99.90;;;-141.84;88.39;18769.34;5049707;28;20208;-59
2022/07/02 00:51:34;;;;;;;7.00;6.35;;;15.40;99.90;;;-141.84;88.19;18751.06;5048759;28;20599;-59
2022/07/02 00:54:04;;;;;;;6.53;5.88;;;15.50;99.90;;;-141.84;88.91;18744.97;5048915;28;20225;-58
2022/07/02 00:56:33;;;;;;;6.72;5.90;;;15.40;99.90;;;-141.84;87.75;18757.16;5048686;28;20303;-58
2022/07/02 00:59:04;;;;;;;7.40;5.95;;;15.40;99.90;;;-141.84;87.89;18747.00;5048946;28;20312;-59
2022/07/02 01:01:33;;;;;;;6.07;5.53;;;15.40;99.90;;;-141.84;88.36;18779.50;5055082;28;20229;-59
2022/07/02 01:04:02;;;;;;;6.10;5.60;;;15.40;99.90;;;-141.84;89.02;18740.91;5069861;28;20201;-58
2022/07/02 01:06:34;;;;;;;6.88;5.93;;;15.40;99.90;;;-141.84;89.23;18675.88;5068899;28;20236;-57
2022/07/02 01:11:51;;;;;;;6.15;5.60;;;15.30;99.90;;;-141.84;90.13;18621.03;5068725;28;20308;-58
2022/07/02 01:14:23;;;;;;;6.55;5.85;;;15.20;99.90;;;-141.84;90.58;18623.06;5068978;28;20250;-61
2022/07/02 01:16:52;;;;;;;6.70;6.00;;;15.20;99.90;;;-141.84;90.89;18572.25;5068426;28;20704;-59
2022/07/02 01:19:23;;;;;;;5.82;5.22;;;15.10;99.90;;;-141.84;91.20;18592.59;5072791;28;20208;-59
2022/07/02 01:22:32;;;;;;;6.80;6.10;;;15.00;99.90;;;-141.84;91.30;18572.25;5072906;28;20191;-58
2022/07/02 01:25:01;;;;;;;7.00;6.25;;;15.00;99.90;;;-141.84;91.97;18525.53;5029981;28;20721;-59
2022/07/02 01:27:29;;;;;;;7.63;6.03;;;14.90;99.90;;;-141.84;92.26;18493.03;5029816;28;20318;-59
2022/07/02 01:29:58;;;;;;;7.45;6.20;;;14.80;99.90;;;-141.84;92.12;18521.47;5051880;28;20231;-59
2022/07/02 01:32:27;;;;;;;6.50;5.68;;;14.80;99.90;;;-141.84;91.74;18521.47;5089005;28;20236;-59
2022/07/02 01:35:04;;;;;;;7.38;5.43;;;14.90;99.90;;;-141.84;91.68;18539.75;5092872;28;20226;-59
2022/07/02 01:37:34;;;;;;;7.10;5.03;;;14.80;99.90;;;-141.84;90.73;18529.59;5092243;28;20603;-58
2022/07/02 01:40:02;;;;;;;7.55;5.55;;;14.80;99.90;;;-141.84;90.64;18537.72;5079980;28;20295;-59
2022/07/02 01:42:30;;;;;;;6.22;5.45;;;14.90;99.90;;;-141.84;90.38;18568.19;5072280;28;20294;-59
2022/07/02 01:44:59;;;;;;;7.28;5.63;;;14.90;99.90;;;-141.84;90.87;18529.59;5072283;28;20232;-57
2022/07/02 01:47:27;;;;;;;5.63;5.13;;;14.90;99.90;;;-141.84;91.36;18507.25;5054882;28;20229;-57
2022/07/02 01:49:55;;;;;;;5.80;5.30;;;14.90;99.90;;;-141.84;91.83;18499.13;5052296;28;20312;-58
2022/07/02 01:52:23;;;;;;;7.32;5.15;;;14.80;99.90;;;-141.84;91.45;18525.53;5051536;28;20217;-59
2022/07/02 01:54:53;;;;;;;5.68;5.18;;;14.80;99.90;;;-141.84;90.17;18558.03;5052219;28;20296;-59
2022/07/02 01:57:21;;;;;;;6.00;5.18;;;14.80;99.90;;;-141.84;90.32;18517.41;5051031;28;20224;-58
2022/07/02 01:59:50;;;;;;;5.72;5.20;;;14.80;99.90;;;-141.84;91.30;18486.94;5050436;28;20221;-59
2022/07/02 02:02:18;;;;;;;7.13;5.40;;;14.80;99.90;;;-141.84;92.10;18442.25;5062734;28;20228;-59
2022/07/02 02:04:46;;;;;;;6.32;5.50;;;14.70;99.90;;;-141.84;91.99;18421.91;5071237;28;20688;-58
2022/07/02 02:07:14;;;;;;;5.93;5.20;;;14.80;99.90;;;-141.84;91.76;18464.59;5071460;28;20284;-58
2022/07/02 02:09:42;;;;;;;6.13;5.53;;;14.80;99.90;;;-141.84;91.24;18497.09;5071925;28;20607;-58
2022/07/02 02:12:12;;;;;;;7.10;5.78;;;14.80;99.90;;;-141.84;89.38;18568.19;5070666;28;20602;-58
2022/07/02 02:14:40;;;;;;;5.70;5.15;;;14.90;99.90;;;-141.84;90.02;18537.72;5071386;28;20239;-60
2022/07/02 02:17:09;;;;;;;5.53;5.03;;;14.90;99.90;;;-141.84;91.33;18454.44;5071082;28;20662;-59
2022/07/02 02:19:37;;;;;;;5.13;4.63;;;14.80;99.90;;;-141.84;92.40;18440.22;5071176;28;20227;-59
2022/07/02 02:22:06;;;;;;;5.28;4.63;;;14.80;99.90;;;-141.84;92.76;18411.75;5071759;28;20280;-58
2022/07/02 02:24:34;;;;;;;5.78;5.00;;;14.70;99.90;;;-141.84;92.99;18383.31;5071175;28;20220;-58
2022/07/02 02:27:03;;;;;;;5.97;5.38;;;14.60;99.90;;;-141.84;93.14;18367.06;5073875;28;20315;-60
2022/07/02 02:29:33;;;;;;;5.05;4.60;;;14.60;99.90;;;-141.84;92.99;18352.84;5091155;28;20234;-59
2022/07/02 02:32:01;;;;;;;5.55;5.05;;;14.60;99.90;;;-141.84;93.67;18338.63;5091227;28;20246;-58
2022/07/02 02:34:29;;;;;;;6.35;5.00;;;14.50;99.90;;;-141.84;93.68;17708.88;5091403;28;20211;-58
2022/07/02 02:36:57;;;;;;;6.22;5.63;;;14.50;99.90;;;-141.84;93.82;17680.44;5091880;28;20197;-60
2022/07/02 02:39:26;;;;;;;7.43;5.50;;;14.40;99.90;;;-141.84;93.44;17690.59;5083550;28;20228;-55
2022/07/02 02:41:54;;;;;;;5.13;4.55;;;14.40;99.90;;;-141.84;93.47;17704.81;5071125;28;20230;-59
2022/07/02 02:44:22;;;;;;;5.75;5.13;;;14.40;99.90;;;-141.84;94.38;17623.56;5071350;28;20227;-59
2022/07/02 02:46:51;;;;;;;5.30;4.80;;;14.40;99.90;;;-141.84;94.56;17542.31;5058864;28;20263;-58
2022/07/02 02:49:19;;;;;;;5.85;5.18;;;14.40;99.90;;;-141.84;93.92;17607.31;5050956;28;20209;-59
2022/07/02 02:51:48;;;;;;;6.45;5.05;;;14.30;99.90;;;-141.84;93.28;17627.63;5051132;28;20319;-60
2022/07/02 02:54:16;;;;;;;5.18;4.68;;;14.30;99.90;;;-141.84;93.32;17619.50;5050855;28;20712;-59
2022/07/02 02:56:44;;;;;;;6.13;5.53;;;14.30;99.90;;;-141.84;93.51;17613.41;5050986;28;20229;-59
2022/07/02 02:59:12;;;;;;;5.78;5.10;;;14.30;99.90;;;-141.84;93.47;17597.16;5051086;28;20221;-59
2022/07/02 03:01:40;;;;;;;6.05;5.00;;;14.30;99.90;;;-141.84;93.19;17623.56;5057384;28;20694;-59
2022/07/02 03:04:09;;;;;;;6.10;5.10;;;14.20;99.90;;;-141.84;93.48;17568.72;5071359;28;20288;-60
2022/07/02 03:06:37;;;;;;;6.30;5.20;;;14.20;99.90;;;-141.84;93.76;17564.66;5070996;28;20216;-59
2022/07/02 03:09:06;;;;;;;5.38;4.88;;;14.20;99.90;;;-141.84;93.72;17548.41;5070279;28;20311;-59
2022/07/02 03:11:34;;;;;;;8.88;5.57;;;14.20;99.90;;;-141.84;92.70;17621.53;5070218;28;20251;-59
2022/07/02 03:14:02;;;;;;;9.40;5.13;;;14.20;99.90;;;-141.84;92.76;17668.25;5070856;28;20224;-58
2022/07/02 03:16:30;;;;;;;7.95;5.10;;;14.20;99.90;;;-141.84;93.20;17566.69;5069934;28;20681;-58
2022/07/02 03:18:58;;;;;;;7.55;4.82;;;14.20;99.90;;;-141.84;93.00;17615.44;5070962;28;20255;-58
2022/07/02 03:21:28;;;;;;;7.40;4.63;;;14.20;99.90;;;-141.84;92.03;17706.84;5070141;28;20643;-59
2022/07/02 03:23:56;;;;;;;5.07;4.57;;;14.30;99.90;;;-141.84;92.39;17702.78;5078710;28;20224;-60
2022/07/02 03:26:24;;;;;;;7.40;5.05;;;14.30;99.90;;;-141.84;92.96;17601.22;5090527;28;20501;-59
2022/07/02 03:28:52;;;;;;;5.80;4.80;;;14.30;99.90;;;-141.84;92.71;17627.63;5090520;28;20314;-59
2022/07/02 03:31:20;;;;;;;9.23;4.72;;;14.30;99.90;;;-141.84;92.44;17664.19;5090098;28;20670;-59
2022/07/02 03:33:48;;;;;;;7.53;4.65;;;14.30;99.90;;;-141.84;92.88;17635.75;5090963;28;20224;-59
2022/07/02 03:36:17;;;;;;;7.72;5.05;;;14.30;99.90;;;-141.84;92.30;17660.13;5090312;28;20306;-58
2022/07/02 03:38:47;;;;;;;7.55;4.95;;;14.30;99.90;;;-141.84;91.92;17702.78;5087909;28;20306;-59
2022/07/02 03:41:15;;;;;;;6.47;4.38;;;14.40;99.90;;;-141.84;92.74;17625.59;5069295;28;20311;-59
2022/07/02 03:43:43;;;;;;;6.10;5.07;;;14.30;99.90;;;-141.84;92.60;17678.41;5069930;28;20240;-58
2022/07/02 03:46:12;;;;;;;6.30;4.80;;;14.30;99.90;;;-141.84;92.96;17615.44;5063609;28;20194;-58
2022/07/02 03:48:41;;;;;;;5.40;4.90;;;14.40;99.90;;;-141.84;93.28;17587.00;5050061;28;20225;-59
2022/07/02 03:51:09;;;;;;;5.90;4.72;;;14.40;99.90;;;-141.84;92.85;17580.91;5049755;28;20339;-59
2022/07/02 03:53:37;;;;;;;5.05;4.50;;;14.40;99.90;;;-141.84;92.94;17595.13;5049764;28;20237;-59
2022/07/02 03:56:07;;;;;;;6.10;5.00;;;14.40;99.90;;;-141.84;92.10;17698.72;5049933;28;20262;-58
2022/07/02 03:58:35;;;;;;;5.35;4.50;;;14.40;99.90;;;-141.84;92.37;17660.13;5049888;28;20256;-59
2022/07/02 04:01:03;;;;;;;5.88;4.95;;;14.50;99.90;;;-141.84;93.02;17601.22;5052122;28;20248;-59
2022/07/02 04:03:31;;;;;;;6.05;4.80;;;14.50;99.90;;;-141.84;92.08;17654.03;5069129;28;20224;-59
2022/07/02 04:05:59;;;;;;;10.57;4.90;;;14.60;99.90;;;-141.84;91.93;17698.72;5069474;28;20758;-59
2022/07/02 04:08:27;;;;;;;7.05;4.80;;;14.50;99.90;;;-141.84;90.76;17804.34;5069597;28;20303;-58
2022/07/02 04:10:56;;;;;;;7.28;4.50;;;14.60;99.90;;;-141.84;90.98;17808.41;5049512;28;20307;-59
2022/07/02 04:13:25;;;;;;;5.10;4.47;;;14.70;99.90;;;-141.84;90.48;17881.53;5063034;28;20235;-59
2022/07/02 04:15:53;;;;;;;5.50;4.22;;;14.70;99.90;;;-141.84;90.73;17847.00;5069633;28;20270;-59
2022/07/02 04:18:21;;;;;;;6.10;4.45;;;14.70;99.90;;;-141.84;91.17;17820.59;5068943;28;20290;-60
2022/07/02 04:20:50;;;;;;;4.85;4.30;;;14.80;99.90;;;-141.84;90.77;17840.91;5082783;28;20303;-58
2022/07/02 04:23:18;;;;;;;7.85;4.68;;;14.80;99.90;;;-141.84;91.00;17820.59;5089177;28;20732;-59
2022/07/02 04:25:46;;;;;;;7.57;4.55;;;14.90;99.90;;;-141.84;90.67;17897.78;5089399;28;20315;-58
2022/07/02 04:28:14;;;;;;;5.25;4.75;;;14.90;99.90;;;-141.84;89.92;17932.34;5090014;28;20227;-58
2022/07/02 04:30:44;;;;;;;5.00;4.50;;;15.00;99.90;;;-141.84;90.15;17926.25;5089715;28;20287;-60
2022/07/02 04:33:12;;;;;;;7.50;5.38;;;15.10;99.90;;;-141.84;90.31;17928.28;5089265;28;20226;-60
2022/07/02 04:35:40;;;;;;;7.45;4.65;;;15.20;99.90;;;-141.84;89.06;18029.84;5089101;28;20258;-59
2022/07/02 04:38:08;;;;;;;5.63;4.68;;;15.20;99.90;;;-141.84;88.65;18167.97;5089306;28;20299;-58
2022/07/02 04:40:36;;;;;;;7.50;4.28;;;15.30;99.90;;;-141.84;88.39;18186.25;5071217;28;20313;-59
2022/07/02 04:43:04;;;;;;;5.82;4.78;;;15.40;99.90;;;-141.84;88.25;18224.84;5069778;28;20283;-60
2022/07/02 04:45:32;;;;;;;4.47;3.90;;;15.50;99.90;;;-141.84;87.03;18350.81;5067593;28;20231;-60
2022/07/02 04:48:02;;;;;;;4.57;4.00;;;15.60;99.90;;;-141.84;86.43;18411.75;5048779;28;20729;-59
2022/07/02 04:50:30;;;;;;;7.93;4.07;;;15.70;99.90;;;-141.84;85.31;18529.59;5048752;28;20231;-59
2022/07/02 04:52:58;;;;;;;6.30;4.10;;;15.80;99.90;;;-141.84;85.70;18562.09;5050790;28;20475;-59
2022/07/02 04:55:27;;;;;;;5.15;3.70;;;16.10;99.90;;;-141.84;77.73;19133.06;5052989;28;20569;-61
2022/07/02 04:57:55;;;;;;;6.35;3.45;;;;;;;-141.84;66.71;19748.81;5053768;28;20200;-60
2022/07/02 05:00:23;;;;;;;4.28;3.20;;;18.70;99.90;;;-141.84;58.11;20130.91;5052737;28;20225;-59
2022/07/02 05:02:52;;;;;;;3.95;2.95;;;;;;;-141.84;50.80;20561.81;5069672;28;20712;-61
2022/07/02 05:05:22;;;;;;;3.35;2.63;;;21.60;99.90;;;-141.84;45.50;20923.66;5072695;28;20278;-59
2022/07/02 05:07:52;;;;;;;3.13;2.83;;;;;;;-141.84;43.78;21110.69;5073007;28;20254;-59
2022/07/02 05:10:20;;;;;;;3.80;2.53;;;23.70;99.90;;;-141.84;41.08;21301.81;5072452;28;20695;-59
2022/07/02 05:12:48;;;;;;;3.63;2.30;;;23.80;99.90;;;-141.84;39.89;21431.94;5073031;28;20215;-58
2022/07/02 05:15:17;;;;;;;3.45;2.90;;;24.60;99.90;;;-141.84;38.71;21521.41;5072518;28;20609;-59
2022/07/02 05:17:45;;;;;;;6.20;2.50;;;24.90;99.90;;;-141.84;38.66;21586.47;5091759;28;20324;-60
2022/07/02 05:20:13;;;;;;;4.43;2.80;;;24.90;99.90;;;-141.84;37.24;21741.00;5092881;28;20235;-59
2022/07/02 05:22:43;;;;;;;4.50;2.40;;;25.20;99.90;;;-141.84;37.49;21633.22;5076127;28;20228;-59
2022/07/02 05:25:11;;;;;;;5.30;2.80;;;25.20;99.90;;;-141.84;37.39;21659.66;5072005;28;20201;-60
2022/07/02 05:27:39;;;;;;;4.78;1.95;;;25.30;99.90;;;-141.84;35.95;21865.03;5073011;28;20318;-60
2022/07/02 05:30:08;;;;;;;3.97;2.25;;;25.50;99.90;;;-141.84;36.85;21645.44;5072622;28;20743;-60
2022/07/02 05:32:36;;;;;;;4.43;2.13;;;25.80;99.90;;;-141.84;37.21;21623.06;5072866;28;20307;-59
2022/07/02 05:35:05;;;;;;;5.07;2.70;;;26.00;99.90;;;-141.84;36.92;21677.97;5072824;28;20699;-59
2022/07/02 05:37:33;;;;;;;2.97;2.40;;;25.40;99.90;;;-141.84;37.02;21612.88;5073184;28;20239;-60
2022/07/02 05:40:04;;;;;;;5.63;2.55;;;24.90;99.90;;;-141.84;37.92;21494.97;5073528;28;20235;-59
2022/07/02 05:42:32;;;;;;;3.15;2.70;;;24.70;99.90;;;-141.84;40.43;21179.81;5072912;28;20267;-60
2022/07/02 05:45:00;;;;;;;4.40;2.40;;;24.20;99.90;;;-141.84;43.38;20866.75;5072844;28;20228;-59
2022/07/02 05:47:28;;;;;;;3.67;2.67;;;23.30;99.90;;;-141.84;45.25;20720.38;5055534;28;20240;-60
2022/07/02 05:49:56;;;;;;;8.18;3.22;;;22.60;99.90;;;-141.84;47.81;20488.63;5052680;28;20217;-60
2022/07/02 05:52:24;;;;;;;4.00;2.97;;;21.90;99.90;;;-141.84;49.35;20382.94;5052952;28;20201;-59
2022/07/02 05:54:53;;;;;;;2.88;2.22;;;21.60;99.90;;;-141.84;51.35;20307.72;5053152;28;20739;-59
2022/07/02 05:57:23;;;;;;;5.05;2.60;;;21.30;99.90;;;-141.84;52.73;20212.19;5052868;28;20225;-59
2022/07/02 05:59:51;;;;;;;5.55;2.58;;;21.00;99.90;;;-141.84;53.44;20175.63;5052925;28;20459;-61
2022/07/02 06:02:19;;;;;;;5.10;2.78;;;20.90;99.90;;;-141.84;52.63;20171.56;5065181;28;20640;-60
2022/07/02 06:04:47;;;;;;;4.00;2.65;;;20.80;99.90;;;-141.84;54.79;20098.38;5072588;28;20300;-59
2022/07/02 06:10:02;;;;;;;5.45;2.45;;;20.60;99.90;;;-141.84;54.78;20118.69;5073230;28;20216;-59
2022/07/02 06:12:31;;;;;;;2.85;2.40;;;20.70;99.90;;;-141.84;54.57;20065.84;5079311;28;20231;-59
2022/07/02 06:15:00;;;;;;;3.45;2.42;;;20.60;99.90;;;-141.84;54.53;20112.59;5092803;28;20280;-60
2022/07/02 06:17:28;;;;;;;3.40;2.40;;;20.60;99.90;;;-141.84;54.00;20100.41;5092348;28;20230;-60
2022/07/02 06:19:56;;;;;;;3.08;2.35;;;20.60;99.90;;;-141.84;53.93;20120.75;5093101;28;20215;-60
2022/07/02 06:22:24;;;;;;;2.83;2.50;;;20.70;99.90;;;-141.84;53.57;20120.75;5064432;28;20209;-59
2022/07/02 06:24:55;;;;;;;3.05;2.50;;;20.70;99.90;;;-141.84;53.79;20110.56;5056733;28;20197;-59
2022/07/02 06:27:23;;;;;;;3.67;2.45;;;20.70;99.90;;;-141.84;53.55;20149.19;5065526;28;20250;-59
2022/07/02 06:29:53;;;;;;;2.55;2.30;;;20.80;99.90;;;-141.84;54.04;20132.94;5065107;28;20601;-59
2022/07/02 06:32:21;;;;;;;3.70;2.70;;;20.80;99.90;;;-141.84;53.08;20143.09;5071448;28;20235;-59
2022/07/02 06:34:49;;;;;;;3.42;2.40;;;20.90;99.90;;;-141.84;53.77;20122.78;5072221;28;20307;-58
2022/07/02 06:37:18;;;;;;;4.43;2.38;;;20.90;99.90;;;-141.84;53.54;20139.03;5071775;28;20205;-59
2022/07/02 06:39:46;;;;;;;3.30;2.15;;;21.00;99.90;;;-141.84;54.01;20118.69;5072675;28;20196;-59
2022/07/02 06:42:20;;;;;;;2.25;2.05;;;21.00;99.90;;;-141.84;54.20;20090.25;5068239;28;20225;-60
2022/07/02 06:44:52;;;;;;;4.45;2.42;;;21.00;99.90;;;-141.84;55.14;20143.09;5071828;28;20260;-60
2022/07/02 06:47:26;;;;;;;5.57;2.83;;;20.90;99.90;;;-141.84;54.38;20069.94;5054669;28;20256;-59
2022/07/02 06:49:57;;;;;;;3.22;2.63;;;21.00;99.90;;;-141.84;55.32;20092.28;5051782;28;20320;-59
2022/07/02 06:52:26;;;;;;;5.30;2.85;;;20.90;99.90;;;-141.84;54.44;20145.13;5051816;28;20267;-59
2022/07/02 06:54:54;;;;;;;3.95;2.38;;;20.90;99.90;;;-141.84;54.47;20134.97;5052341;28;20222;-59
2022/07/02 06:57:22;;;;;;;3.13;2.20;;;21.00;99.90;;;-141.84;53.64;20141.06;5070238;28;20311;-60
2022/07/02 06:59:54;;;;;;;4.20;2.67;;;21.00;99.90;;;-141.84;54.15;20128.88;5071316;28;20871;-60
2022/07/02 07:02:23;;;;;;;3.20;2.60;;;21.00;99.90;;;-141.84;53.64;20128.88;5070140;28;20712;-60
2022/07/02 07:04:52;;;;;;;4.95;2.45;;;21.00;99.90;;;-141.84;52.75;20171.56;5082218;28;20710;-58
2022/07/02 07:07:25;;;;;;;4.20;1.90;;;21.00;99.90;;;-141.84;53.68;20153.25;5068889;28;20609;-59
2022/07/02 07:09:53;;;;;;;4.25;2.78;;;21.10;99.90;;;-141.84;52.77;20143.09;5069271;28;20668;-59
2022/07/02 07:12:21;;;;;;;2.38;2.17;;;21.10;99.90;;;-141.84;54.26;20118.69;5065535;28;20728;-59
2022/07/02 07:14:49;;;;;;;6.05;2.78;;;21.00;99.90;;;-141.84;53.23;20143.09;5077167;28;20219;-60
2022/07/02 07:17:19;;;;;;;3.95;2.85;;;21.10;99.90;;;-141.84;53.13;20165.44;5079936;28;20263;-59
2022/07/02 07:19:48;;;;;;;5.43;3.38;;;21.10;99.90;;;-141.84;54.05;20139.03;5081756;28;20232;-60
2022/07/02 07:22:16;;;;;;;5.50;3.88;;;21.10;99.90;;;-141.84;53.93;20102.44;5065127;28;20197;-61
2022/07/02 07:24:44;;;;;;;3.58;2.65;;;21.20;99.90;;;-141.84;54.03;20134.97;5065898;28;20736;-59
2022/07/02 07:27:12;;;;;;;3.15;2.15;;;21.30;99.90;;;-141.84;52.69;20189.84;5072054;28;20217;-59
2022/07/02 07:29:40;;;;;;;3.83;2.45;;;21.30;99.90;;;-141.84;51.21;20177.66;5073064;28;20248;-59
2022/07/02 07:32:09;;;;;;;2.22;2.00;;;21.20;99.90;;;-141.84;51.37;20177.66;5070426;28;20255;-60
2022/07/02 07:34:42;;;;;;;3.85;2.22;;;21.20;99.90;;;-141.84;52.37;20183.75;5085583;28;20720;-58
2022/07/02 07:37:13;;;;;;;3.55;2.30;;;21.20;99.90;;;-141.84;51.85;20183.75;5081333;28;20185;-61
2022/07/02 07:39:41;;;;;;;4.28;2.08;;;21.30;99.90;;;-141.84;52.60;20155.28;5078825;28;20210;-60
2022/07/02 07:42:09;;;;;;;2.58;2.33;;;21.40;99.90;;;-141.84;51.90;20195.94;5082495;28;20212;-58
2022/07/02 07:44:37;;;;;;;6.15;2.65;;;21.40;99.90;;;-141.84;52.27;20187.81;5072063;28;20565;-60
2022/07/02 07:47:06;;;;;;;3.03;2.50;;;21.40;99.90;;;-141.84;51.63;20181.72;5065353;28;20221;-60
2022/07/02 07:49:35;;;;;;;2.00;1.90;;;21.40;99.90;;;-141.84;52.28;20210.16;5069377;28;20225;-59
2022/07/02 07:52:05;;;;;;;4.25;2.55;;;21.40;99.90;;;-141.84;52.38;20193.91;5062285;28;20288;-59
2022/07/02 07:54:34;;;;;;;5.57;2.83;;;21.40;99.90;;;-141.84;53.06;20200.00;5051708;28;20235;-59
2022/07/02 07:57:02;;;;;;;2.55;2.33;;;21.40;99.90;;;-141.84;53.24;20200.00;5053892;28;20287;-59
2022/07/02 07:59:31;;;;;;;3.75;2.33;;;21.50;99.90;;;-141.84;52.26;20193.91;5071617;28;20224;-59
2022/07/02 08:01:59;;;;;;;2.83;1.85;;;21.50;99.90;;;-141.84;52.70;20183.75;5071195;28;20653;-60
2022/07/02 08:04:29;;;;;;;2.90;2.20;;;21.50;99.90;;;-141.84;51.82;20224.41;5070079;28;20861;-59
2022/07/02 08:06:57;;;;;;;3.88;2.55;;;21.60;99.90;;;-141.84;52.12;20193.91;5071041;28;20201;-60
2022/07/02 08:09:26;;;;;;;2.55;2.35;;;21.60;99.90;;;-141.84;49.19;20285.38;5068326;28;20229;-59
2022/07/02 08:11:55;;;;;;;3.35;2.10;;;21.60;99.90;;;-141.84;50.25;20252.84;5070025;28;20247;-57
2022/07/02 08:14:23;;;;;;;3.15;2.20;;;21.60;99.90;;;-141.84;49.02;20260.97;5070156;28;20255;-56
2022/07/02 08:16:51;;;;;;;1.98;1.85;;;21.60;99.90;;;-141.84;49.31;20273.19;5067430;28;20223;-57
2022/07/02 08:19:19;;;;;;;3.05;2.13;;;21.60;99.90;;;-141.84;48.46;20271.16;5070519;28;20211;-58
2022/07/02 08:21:47;;;;;;;2.35;1.73;;;21.60;99.90;;;-141.84;47.81;20281.31;5068087;28;20207;-59
2022/07/02 08:24:16;;;;;;;3.28;1.90;;;21.60;99.90;;;-141.84;48.57;20297.56;5070390;28;20677;-60
2022/07/02 08:26:45;;;;;;;3.63;2.33;;;21.60;99.90;;;-141.84;48.52;20263.00;5070470;28;20639;-58
2022/07/02 08:29:13;;;;;;;2.20;1.88;;;21.70;99.90;;;-141.84;46.78;20303.66;5070296;28;20696;-59
2022/07/02 08:31:42;;;;;;;2.80;2.00;;;21.70;99.90;;;-141.84;44.08;20407.34;5070356;28;20220;-60
2022/07/02 08:34:10;;;;;;;2.58;2.10;;;21.80;99.90;;;-141.84;43.61;20452.06;5071140;28;20197;-59
2022/07/02 08:36:38;;;;;;;2.03;1.40;;;21.80;99.90;;;-141.84;42.68;20519.13;5070490;28;20228;-59
2022/07/02 08:39:06;;;;;;;2.88;1.70;;;22.00;99.90;;;-141.84;42.46;20500.84;5070166;28;20224;-59
2022/07/02 08:41:37;;;;;;;2.30;1.60;;;22.10;99.90;;;-141.84;43.44;20525.22;5070555;28;20228;-59
2022/07/02 08:44:08;;;;;;;5.40;1.80;;;22.10;99.90;;;-141.84;43.25;20513.03;5070265;28;20885;-59
2022/07/02 08:46:41;;;;;;;2.40;1.83;;;22.10;99.90;;;-141.84;43.05;20511.00;5060303;28;20304;-60
2022/07/02 08:49:11;;;;;;;3.75;1.70;;;22.20;99.90;;;-141.84;42.40;20563.84;5050977;28;20213;-59
2022/07/02 08:51:40;;;;;;;1.60;1.50;;;22.20;99.90;;;-141.84;42.35;20513.03;5050441;28;20312;-59
2022/07/02 08:54:10;;;;;;;3.33;1.80;;;22.20;99.90;;;-141.84;42.66;20508.97;5059751;28;20220;-59
2022/07/02 08:56:40;;;;;;;2.25;1.58;;;22.20;99.90;;;-141.84;41.19;20586.22;5070186;28;20696;-60
2022/07/02 08:59:09;;;;;;;2.70;1.65;;;22.30;99.90;;;-141.84;40.55;20624.84;5070167;28;20314;-58
2022/07/02 09:01:38;;;;;;;3.10;1.60;;;22.40;99.90;;;-141.84;39.35;20665.50;5073028;28;20305;-60
2022/07/02 09:04:06;;;;;;;4.40;2.25;;;22.60;99.90;;;-141.84;38.65;20746.81;5070525;28;20205;-58
2022/07/02 09:06:37;;;;;;;2.33;1.70;;;22.70;99.90;;;-141.84;39.77;20628.91;5069845;28;20225;-60
2022/07/02 09:09:05;;;;;;;1.55;1.20;;;22.60;99.90;;;-141.84;40.48;20637.03;5069682;28;20319;-58
2022/07/02 09:11:33;;;;;;;3.10;1.60;;;22.50;99.90;;;-141.84;41.87;20576.03;5069746;28;20246;-58
2022/07/02 09:14:03;;;;;;;2.25;1.67;;;22.40;99.90;;;-141.84;40.28;20598.41;5069888;28;20230;-60
2022/07/02 09:16:33;;;;;;;2.03;1.55;;;22.30;99.90;;;-141.84;41.10;20604.50;5069861;28;20221;-58
2022/07/02 09:19:01;;;;;;;2.35;1.80;;;22.30;99.90;;;-141.84;40.04;20655.31;5070574;28;20292;-59
2022/07/02 09:21:41;;;;;;;1.50;1.40;;;22.40;99.90;;;-141.84;40.04;20665.50;5069579;28;20235;-59
2022/07/02 09:24:09;;;;;;;2.13;1.60;;;22.50;99.90;;;-141.84;39.61;20722.41;5069691;28;20234;-59
2022/07/02 09:26:37;;;;;;;3.40;1.60;;;22.70;99.90;;;-141.84;40.90;20698.00;5069836;28;20229;-59
2022/07/02 09:29:05;;;;;;;2.30;1.60;;;22.80;99.90;;;-141.84;39.21;20744.78;5069930;28;20228;-59
2022/07/02 09:31:49;;;;;;;2.08;1.50;;;23.00;99.90;;;-141.84;39.91;20716.31;5069605;28;20229;-59
2022/07/02 09:34:25;;;;;;;2.58;1.45;;;23.00;99.90;;;-141.84;40.07;20724.44;5069957;28;20272;-59
2022/07/02 09:36:54;;;;;;;1.65;1.55;;;23.10;99.90;;;-141.84;39.82;20720.38;5070433;28;20211;-59
2022/07/02 09:39:30;;;;;;;2.17;1.52;;;23.20;99.90;;;-141.84;38.67;20787.47;5071468;28;20247;-60
2022/07/02 09:41:58;;;;;;;3.00;1.48;;;23.20;99.90;;;-141.84;38.75;20815.91;5073315;28;20227;-59
2022/07/02 09:44:27;;;;;;;2.20;1.70;;;23.30;99.90;;;-141.84;38.49;20838.28;5073220;28;20228;-59
2022/07/02 09:46:56;;;;;;;3.33;1.88;;;23.40;99.90;;;-141.84;37.85;20860.66;5060573;28;20243;-60
2022/07/02 09:49:24;;;;;;;2.70;1.50;;;23.40;99.90;;;-141.84;37.36;20822.03;5053996;28;20209;-59
2022/07/02 09:51:54;;;;;;;2.75;1.65;;;23.40;99.90;;;-141.84;37.71;20795.59;5073560;28;20690;-60
2022/07/02 09:54:24;;;;;;;1.63;1.48;;;23.30;99.90;;;-141.84;37.28;20864.72;5072937;28;20229;-59
2022/07/02 09:56:54;;;;;;;1.85;1.33;;;23.30;99.90;;;-141.84;37.83;20828.13;5074525;28;20320;-59
2022/07/02 09:59:23;;;;;;;1.20;1.08;;;23.20;99.90;;;-141.84;38.32;20824.06;5073602;28;20234;-58
2022/07/02 10:01:51;;;;;;;2.58;1.55;;;23.20;99.90;;;-141.84;38.58;20866.75;5072574;28;20228;-61
2022/07/02 10:04:30;;;;;;;2.65;1.58;;;23.40;99.90;;;-141.84;37.36;20885.03;5072822;28;20208;-60
2022/07/02 10:06:59;;;;;;;2.40;1.50;;;23.60;99.90;;;-141.84;37.55;20899.28;5073753;28;20191;-59
2022/07/02 10:09:28;;;;;;;1.60;1.50;;;23.70;99.90;;;-141.84;37.51;20885.03;5072552;28;20224;-60
2022/07/02 10:11:58;;;;;;;1.40;1.30;;;23.70;99.90;;;-141.84;37.89;20925.69;5072569;28;20231;-59
2022/07/02 10:14:31;;;;;;;1.30;1.20;;;23.90;99.90;;;-141.84;36.63;21000.91;5072581;28;20234;-60
2022/07/02 10:17:00;;;;;;;1.80;1.50;;;23.90;99.90;;;-141.84;37.11;20962.28;5072508;28;20311;-59
2022/07/02 10:19:32;;;;;;;6.10;1.55;;;24.00;99.90;;;-141.84;37.20;20941.97;5072019;28;20751;-60
2022/07/02 10:22:02;;;;;;;2.15;1.50;;;23.90;99.90;;;-141.84;36.95;20941.97;5073214;28;20200;-60